createdAt,value
2023-01-26T00:01:19.715Z,18.35
2023-01-26T00:03:47.125Z,15.38
2023-01-26T00:06:16.487Z,14.52
2023-01-26T00:08:45.164Z,16.50
2023-01-26T00:11:13.892Z,24.88
2023-01-26T00:13:40.965Z,23.13
2023-01-26T00:16:13.251Z,13.27
2023-01-26T00:18:41.570Z,13.43
2023-01-26T00:21:09.711Z,12.35
2023-01-26T00:23:36.583Z,13.98
2023-01-26T00:26:03.834Z,13.13
2023-01-26T00:28:30.500Z,15.85
2023-01-26T00:31:09.153Z,14.07
2023-01-26T00:33:35.876Z,16.73
2023-01-26T00:36:02.494Z,14.02
2023-01-26T00:38:29.928Z,17.35
2023-01-26T00:40:56.667Z,14.70
2023-01-26T00:43:23.334Z,17.02
2023-01-26T00:45:49.930Z,16.20
2023-01-26T00:48:16.678Z,14.82
2023-01-26T00:50:43.385Z,15.43
2023-01-26T00:53:10.670Z,16.17
2023-01-26T00:55:37.384Z,16.85
2023-01-26T00:58:06.027Z,16.10
2023-01-26T01:00:34.273Z,18.73
2023-01-26T01:03:04.330Z,13.38
2023-01-26T01:05:32.063Z,15.52
2023-01-26T01:07:59.050Z,14.98
2023-01-26T01:10:27.726Z,14.32
2023-01-26T01:12:55.210Z,13.85
2023-01-26T01:15:21.891Z,13.70
2023-01-26T01:17:48.960Z,15.18
2023-01-26T01:20:16.118Z,14.82
2023-01-26T01:22:42.818Z,13.20
2023-01-26T01:25:09.763Z,12.48
2023-01-26T01:27:37.284Z,11.35
2023-01-26T01:30:08.421Z,12.65
2023-01-26T01:32:36.513Z,13.30
2023-01-26T01:35:04.091Z,12.52
2023-01-26T01:37:30.911Z,10.25
2023-01-26T01:39:57.531Z,13.88
2023-01-26T01:42:24.571Z,12.07
2023-01-26T01:45:29.686Z,10.90
2023-01-26T01:47:57.917Z,12.98
2023-01-26T01:50:25.645Z,11.68
2023-01-26T01:52:53.978Z,13.38
2023-01-26T01:55:20.822Z,14.57
2023-01-26T01:57:51.932Z,14.90
2023-01-26T02:00:21.593Z,11.77
2023-01-26T02:03:11.290Z,9.60
2023-01-26T02:05:49.860Z,8.95
2023-01-26T02:08:17.665Z,9.27
2023-01-26T02:10:47.045Z,9.80
2023-01-26T02:13:14.335Z,10.38
2023-01-26T02:15:40.953Z,8.63
2023-01-26T02:18:08.362Z,8.63
2023-01-26T02:20:47.519Z,8.63
2023-01-26T02:23:59.128Z,7.97
2023-01-26T02:26:30.923Z,7.45
2023-01-26T02:28:58.432Z,8.00
2023-01-26T02:31:25.660Z,9.13
2023-01-26T02:33:52.431Z,7.15
2023-01-26T02:36:22.141Z,8.95
2023-01-26T02:39:16.824Z,6.65
2023-01-26T02:42:19.790Z,6.95
2023-01-26T02:44:46.539Z,7.10
2023-01-26T02:47:14.834Z,6.70
2023-01-26T02:49:47.818Z,7.18
2023-01-26T02:52:15.654Z,7.80
2023-01-26T02:55:00.819Z,8.40
2023-01-26T02:57:27.547Z,7.00
2023-01-26T02:59:54.188Z,6.68
2023-01-26T03:02:21.367Z,5.65
2023-01-26T03:04:48.256Z,5.32
2023-01-26T03:07:15.032Z,5.18
2023-01-26T03:09:41.723Z,5.97
2023-01-26T03:12:08.992Z,5.63
2023-01-26T03:14:35.711Z,7.00
2023-01-26T03:17:02.432Z,7.20
2023-01-26T03:19:47.591Z,6.68
2023-01-26T03:22:33.164Z,6.80
2023-01-26T03:25:18.154Z,7.95
2023-01-26T03:27:47.146Z,7.97
2023-01-26T03:30:17.415Z,6.85
2023-01-26T03:32:44.200Z,8.40
2023-01-26T03:35:15.537Z,12.30
2023-01-26T03:37:43.798Z,9.00
2023-01-26T03:40:30.819Z,7.70
2023-01-26T03:43:16.449Z,8.20
2023-01-26T03:46:01.549Z,9.10
2023-01-26T03:48:46.974Z,7.38
2023-01-26T03:51:32.398Z,7.00
2023-01-26T03:54:17.605Z,8.35
2023-01-26T03:56:45.079Z,7.88
2023-01-26T03:59:15.670Z,7.90
2023-01-26T04:02:05.277Z,9.15
2023-01-26T04:04:51.082Z,7.97
2023-01-26T04:07:37.549Z,7.85
2023-01-26T04:10:04.498Z,9.32
2023-01-26T04:12:31.703Z,8.23
2023-01-26T04:15:17.604Z,8.23
2023-01-26T04:18:03.300Z,11.45
2023-01-26T04:20:48.725Z,9.02
2023-01-26T04:23:21.695Z,8.45
2023-01-26T04:25:49.896Z,8.55
2023-01-26T04:28:16.575Z,8.80
2023-01-26T04:30:43.347Z,9.15
2023-01-26T04:33:10.632Z,8.43
2023-01-26T04:35:37.321Z,8.27
2023-01-26T04:38:04.195Z,9.38
2023-01-26T04:40:30.989Z,11.57
2023-01-26T04:42:57.881Z,7.90
2023-01-26T04:45:24.566Z,9.02
2023-01-26T04:47:51.175Z,7.80
2023-01-26T04:50:18.477Z,8.40
2023-01-26T04:52:45.147Z,8.00
2023-01-26T04:55:11.815Z,9.85
2023-01-26T04:57:38.685Z,8.82
2023-01-26T05:00:06.546Z,8.00
2023-01-26T05:02:33.358Z,10.15
2023-01-26T05:05:00.240Z,8.75
2023-01-26T05:07:27.016Z,10.05
2023-01-26T05:09:53.627Z,8.93
2023-01-26T05:12:35.390Z,10.38
2023-01-26T05:15:02.328Z,11.10
2023-01-26T05:17:28.926Z,10.05
2023-01-26T05:19:55.641Z,11.38
2023-01-26T05:22:22.264Z,9.75
2023-01-26T05:24:49.084Z,10.52
2023-01-26T05:27:21.831Z,10.52
2023-01-26T05:29:49.869Z,12.73
2023-01-26T05:32:16.878Z,10.30
2023-01-26T05:34:43.591Z,11.90
2023-01-26T05:37:11.669Z,13.52
2023-01-26T05:39:39.343Z,12.23
2023-01-26T05:42:05.973Z,12.15
2023-01-26T05:44:32.810Z,11.85
2023-01-26T05:46:59.409Z,12.40
2023-01-26T05:49:26.532Z,11.70
2023-01-26T05:51:53.329Z,11.80
2023-01-26T05:54:20.121Z,11.50
2023-01-26T05:56:46.886Z,11.18
2023-01-26T05:59:13.751Z,13.98
2023-01-26T06:01:40.503Z,11.23
2023-01-26T06:04:07.285Z,13.98
2023-01-26T06:06:33.891Z,14.73
2023-01-26T06:09:00.904Z,14.80
2023-01-26T06:11:27.643Z,14.15
2023-01-26T06:13:54.661Z,12.50
2023-01-26T06:16:21.490Z,13.10
2023-01-26T06:18:49.968Z,11.43
2023-01-26T06:21:17.022Z,12.27
2023-01-26T06:23:44.243Z,14.23
2023-01-26T06:26:11.089Z,11.38
2023-01-26T06:28:37.827Z,11.70
2023-01-26T06:31:06.162Z,13.02
2023-01-26T06:33:36.768Z,14.57
2023-01-26T06:36:11.680Z,11.55
2023-01-26T06:38:39.204Z,12.93
2023-01-26T06:41:07.836Z,15.18
2023-01-26T06:43:35.683Z,11.77
2023-01-26T06:46:04.187Z,12.95
2023-01-26T06:48:35.635Z,12.93
2023-01-26T06:51:44.470Z,12.75
2023-01-26T06:54:12.449Z,13.63
2023-01-26T06:56:40.591Z,14.43
2023-01-26T06:59:07.228Z,12.57
2023-01-26T07:01:36.982Z,12.57
2023-01-26T07:04:03.813Z,12.75
2023-01-26T07:06:30.772Z,15.48
2023-01-26T07:08:57.387Z,14.07
2023-01-26T07:11:25.772Z,13.50
2023-01-26T07:13:52.650Z,12.35
2023-01-26T07:16:20.441Z,14.80
2023-01-26T07:18:47.221Z,14.60
2023-01-26T07:21:19.116Z,14.93
2023-01-26T07:23:47.230Z,15.23
2023-01-26T07:26:14.794Z,13.40
2023-01-26T07:28:42.020Z,14.27
2023-01-26T07:31:09.316Z,13.25
2023-01-26T07:33:36.349Z,13.18
2023-01-26T07:36:04.471Z,13.77
2023-01-26T07:38:31.637Z,11.00
2023-01-26T07:40:58.418Z,12.73
2023-01-26T07:43:25.133Z,12.75
2023-01-26T07:45:54.260Z,13.88
2023-01-26T07:48:22.863Z,11.80
2023-01-26T07:50:50.168Z,11.80
2023-01-26T07:53:23.345Z,12.05
2023-01-26T07:55:50.783Z,8.80
2023-01-26T07:58:18.897Z,11.82
2023-01-26T08:00:48.431Z,12.93
2023-01-26T08:03:15.168Z,15.88
2023-01-26T08:05:43.369Z,12.27
2023-01-26T08:08:10.675Z,16.02
2023-01-26T08:10:37.419Z,14.38
2023-01-26T08:13:04.280Z,14.02
2023-01-26T08:15:31.005Z,16.38
2023-01-26T08:17:57.863Z,16.60
2023-01-26T08:20:24.645Z,16.67
2023-01-26T08:22:51.315Z,19.30
2023-01-26T08:25:17.924Z,19.02
2023-01-26T08:27:44.826Z,18.08
2023-01-26T08:30:12.917Z,17.17
2023-01-26T08:32:39.954Z,19.67
2023-01-26T08:35:08.265Z,18.50
2023-01-26T08:37:35.109Z,18.80
2023-01-26T08:40:02.023Z,19.25
2023-01-26T08:42:29.199Z,17.42
2023-01-26T08:44:56.367Z,20.42
2023-01-26T08:47:22.990Z,19.50
2023-01-26T08:49:49.631Z,19.35
2023-01-26T08:52:17.222Z,18.15
2023-01-26T08:54:44.278Z,21.15
2023-01-26T08:57:12.429Z,18.50
2023-01-26T08:59:39.185Z,22.00
2023-01-26T09:02:06.155Z,21.13
2023-01-26T09:04:33.556Z,18.63
2023-01-26T09:07:00.792Z,18.83
2023-01-26T09:09:27.531Z,19.58
2023-01-26T09:11:57.400Z,21.52
2023-01-26T09:14:24.155Z,17.42
2023-01-26T09:16:51.182Z,22.25
2023-01-26T09:19:18.269Z,21.40
2023-01-26T09:21:44.949Z,17.42
2023-01-26T09:24:11.866Z,18.77
2023-01-26T09:26:39.004Z,17.55
2023-01-26T09:29:05.616Z,19.08
2023-01-26T09:31:32.490Z,19.63
2023-01-26T09:33:59.208Z,22.00
2023-01-26T09:36:25.880Z,18.50
2023-01-26T09:38:54.324Z,21.20
2023-01-26T09:41:44.441Z,22.27
2023-01-26T09:44:22.647Z,23.08
2023-01-26T09:47:10.462Z,21.50
2023-01-26T09:49:50.211Z,21.35
2023-01-26T09:52:38.768Z,21.30
2023-01-26T09:55:09.879Z,24.05
2023-01-26T09:57:40.664Z,25.17
2023-01-26T10:00:31.730Z,23.65
2023-01-26T10:03:25.163Z,27.45
2023-01-26T10:06:13.650Z,23.40
2023-01-26T10:08:42.201Z,26.33
2023-01-26T10:11:19.118Z,28.63
2023-01-26T10:13:52.283Z,26.58
2023-01-26T10:16:19.304Z,35.23
2023-01-26T10:18:59.712Z,32.92
2023-01-26T10:21:34.080Z,30.77
2023-01-26T10:24:03.186Z,30.38
2023-01-26T10:26:33.512Z,25.85
2023-01-26T10:29:00.607Z,28.13
2023-01-26T10:31:29.781Z,27.17
2023-01-26T10:34:17.808Z,26.65
2023-01-26T10:36:46.119Z,30.52
2023-01-26T10:39:17.819Z,33.25
2023-01-26T10:42:00.915Z,32.22
2023-01-26T10:44:38.744Z,24.67
2023-01-26T10:47:18.030Z,22.13
2023-01-26T10:49:44.886Z,25.23
2023-01-26T10:52:21.878Z,25.55
2023-01-26T10:54:50.003Z,25.55
2023-01-26T10:57:28.398Z,24.95
2023-01-26T11:00:00.988Z,24.75
2023-01-26T11:02:31.877Z,23.77
2023-01-26T11:05:16.072Z,23.23
2023-01-26T11:07:45.465Z,25.10
2023-01-26T11:10:32.085Z,26.05
2023-01-26T11:13:28.974Z,24.30
2023-01-26T11:16:06.943Z,27.17
2023-01-26T11:18:58.521Z,24.85
2023-01-26T11:21:47.212Z,26.08
2023-01-26T11:24:26.443Z,27.77
2023-01-26T11:27:26.586Z,35.67
2023-01-26T11:30:06.502Z,27.17
2023-01-26T11:32:55.757Z,28.92
2023-01-26T11:35:51.155Z,28.80
2023-01-26T11:38:39.692Z,30.48
2023-01-26T11:41:36.705Z,29.67
2023-01-26T11:44:21.221Z,22.25
2023-01-26T11:47:06.836Z,23.08
2023-01-26T11:50:18.623Z,21.98
2023-01-26T11:53:25.433Z,22.42
2023-01-26T11:56:13.402Z,21.52
2023-01-26T11:58:48.861Z,18.58
2023-01-26T12:01:29.154Z,22.55
2023-01-26T12:03:57.402Z,32.00
2023-01-26T12:06:44.516Z,35.75
2023-01-26T12:09:23.931Z,28.95
2023-01-26T12:12:40.152Z,23.63
2023-01-26T12:15:13.130Z,26.95
2023-01-26T12:18:16.148Z,25.97
2023-01-26T12:20:47.136Z,25.42
2023-01-26T12:23:28.194Z,28.30
2023-01-26T12:26:01.965Z,26.05
2023-01-26T12:28:43.709Z,26.65
2023-01-26T12:31:23.765Z,31.02
2023-01-26T12:33:54.050Z,30.80
2023-01-26T12:36:39.699Z,29.95
2023-01-26T12:39:24.398Z,31.52
2023-01-26T12:42:04.134Z,28.58
2023-01-26T12:44:40.148Z,24.42
2023-01-26T12:47:18.906Z,25.70
2023-01-26T12:50:17.778Z,26.90
2023-01-26T12:52:57.271Z,29.25
2023-01-26T12:55:31.156Z,27.02
2023-01-26T12:58:03.675Z,29.38
2023-01-26T13:00:33.782Z,23.67
2023-01-26T13:03:05.466Z,26.52
2023-01-26T13:05:36.140Z,24.45
2023-01-26T13:08:53.829Z,26.10
2023-01-26T13:11:43.248Z,25.88
2023-01-26T13:14:37.987Z,31.23
2023-01-26T13:17:53.293Z,26.70
2023-01-26T13:20:44.211Z,24.00
2023-01-26T13:23:52.626Z,26.58
2023-01-26T13:26:22.309Z,25.10
2023-01-26T13:28:49.995Z,28.13
2023-01-26T13:31:35.054Z,24.92
2023-01-26T13:34:06.597Z,25.70
2023-01-26T13:36:36.244Z,25.80
2023-01-26T13:39:13.481Z,31.95
2023-01-26T13:41:47.135Z,26.05
2023-01-26T13:44:20.998Z,24.77
2023-01-26T13:46:56.219Z,26.70
2023-01-26T13:49:47.697Z,27.40
2023-01-26T13:52:26.182Z,29.63
2023-01-26T13:55:00.899Z,28.95
2023-01-26T13:57:30.472Z,25.45
2023-01-26T14:00:02.159Z,26.83
2023-01-26T14:02:34.371Z,27.30
2023-01-26T14:05:02.255Z,26.88
2023-01-26T14:07:41.524Z,26.75
2023-01-26T14:10:09.186Z,24.02
2023-01-26T14:12:44.195Z,23.65
2023-01-26T14:15:27.553Z,25.33
2023-01-26T14:18:00.435Z,25.35
2023-01-26T14:20:30.674Z,28.10
2023-01-26T14:23:15.574Z,27.98
2023-01-26T14:25:47.020Z,29.30
2023-01-26T14:28:18.169Z,32.25
2023-01-26T14:30:45.543Z,28.65
2023-01-26T14:33:17.088Z,27.10
2023-01-26T14:35:55.786Z,29.15
2023-01-26T14:38:22.689Z,31.15
2023-01-26T14:40:52.694Z,31.52
2023-01-26T14:43:19.994Z,35.10
2023-01-26T14:46:03.648Z,31.55
2023-01-26T14:48:33.984Z,28.77
2023-01-26T14:51:02.817Z,33.70
2023-01-26T14:53:29.561Z,36.13
2023-01-26T14:55:56.185Z,33.03
2023-01-26T14:58:26.144Z,29.23
2023-01-26T15:00:53.106Z,32.88
2023-01-26T15:03:28.617Z,32.67
2023-01-26T15:06:06.350Z,31.50
2023-01-26T15:08:36.095Z,26.65
2023-01-26T15:11:22.830Z,30.42
2023-01-26T15:13:54.666Z,26.50
2023-01-26T15:16:29.444Z,29.20
2023-01-26T15:21:34.737Z,37.80
2023-01-26T15:24:01.417Z,34.08
2023-01-26T15:26:36.419Z,28.75
2023-01-26T15:29:23.500Z,29.75
2023-01-26T15:31:59.871Z,29.83
2023-01-26T15:34:38.133Z,27.35
2023-01-26T15:37:28.428Z,32.33
2023-01-26T15:39:56.024Z,33.53
2023-01-26T15:42:25.041Z,27.90
2023-01-26T15:44:51.782Z,28.95
2023-01-26T15:47:18.782Z,33.47
2023-01-26T15:49:45.451Z,40.35
2023-01-26T15:52:17.713Z,41.60
2023-01-26T15:54:45.171Z,90.55
2023-01-26T15:57:12.680Z,78.82
2023-01-26T15:59:40.371Z,42.28
2023-01-26T16:02:14.664Z,70.65
2023-01-26T16:04:41.873Z,44.80
2023-01-26T16:07:16.825Z,65.82
2023-01-26T16:09:44.426Z,71.35
2023-01-26T16:12:32.669Z,43.65
2023-01-26T16:15:00.196Z,33.20
2023-01-26T16:17:26.952Z,41.42
2023-01-26T16:19:53.579Z,46.08
2023-01-26T16:22:21.121Z,56.08
2023-01-26T16:24:47.783Z,131.10
2023-01-26T16:27:14.958Z,174.90
2023-01-26T16:29:41.664Z,86.90
2023-01-26T16:32:28.837Z,67.78
2023-01-26T16:34:55.732Z,82.47
2023-01-26T16:37:23.923Z,120.63
2023-01-26T16:39:50.773Z,168.55
2023-01-26T16:42:19.359Z,62.75
2023-01-26T16:44:46.571Z,49.38
2023-01-26T16:47:13.284Z,38.85
2023-01-26T16:49:40.103Z,40.03
2023-01-26T16:52:09.235Z,53.38
2023-01-26T16:54:35.940Z,42.35
2023-01-26T16:57:02.633Z,33.25
2023-01-26T16:59:29.625Z,33.45
2023-01-26T17:01:57.097Z,38.90
2023-01-26T17:04:23.808Z,35.95
2023-01-26T17:06:50.810Z,102.55
2023-01-26T17:09:22.141Z,55.67
2023-01-26T17:11:49.176Z,114.03
2023-01-26T17:14:16.086Z,96.05
2023-01-26T17:16:43.089Z,45.83
2023-01-26T17:19:10.129Z,43.78
2023-01-26T17:21:37.272Z,40.03
2023-01-26T17:24:04.319Z,50.63
2023-01-26T17:26:31.450Z,41.92
2023-01-26T17:28:58.095Z,59.10
2023-01-26T17:31:25.581Z,101.85
2023-01-26T17:33:52.750Z,141.90
2023-01-26T17:36:20.527Z,102.35
2023-01-26T17:38:50.421Z,64.28
2023-01-26T17:41:18.032Z,57.58
2023-01-26T17:43:45.428Z,44.72
2023-01-26T17:46:14.368Z,43.00
2023-01-26T17:48:41.105Z,49.25
2023-01-26T17:51:09.679Z,49.65
2023-01-26T17:53:38.415Z,43.75
2023-01-26T17:56:08.484Z,55.55
2023-01-26T17:58:36.595Z,45.80
2023-01-26T18:01:04.583Z,38.78
2023-01-26T18:03:35.108Z,44.45
2023-01-26T18:06:02.087Z,46.95
2023-01-26T18:08:28.789Z,41.42
2023-01-26T18:11:02.962Z,46.25
2023-01-26T18:13:31.120Z,46.50
2023-01-26T18:15:58.444Z,41.35
2023-01-26T18:18:27.987Z,50.90
2023-01-26T18:20:55.807Z,56.03
2023-01-26T18:23:23.520Z,85.13
2023-01-26T18:25:51.044Z,54.63
2023-01-26T18:28:18.032Z,58.85
2023-01-26T18:30:49.219Z,50.85
2023-01-26T18:33:15.788Z,50.65
2023-01-26T18:35:43.121Z,54.95
2023-01-26T18:38:09.793Z,54.28
2023-01-26T18:40:43.379Z,52.45
2023-01-26T18:43:10.112Z,46.70
2023-01-26T18:45:36.840Z,53.95
2023-01-26T18:48:03.975Z,50.78
2023-01-26T18:50:31.393Z,56.50
2023-01-26T18:53:02.285Z,66.32
2023-01-26T18:55:29.094Z,52.78
2023-01-26T18:57:56.055Z,55.28
2023-01-26T19:00:22.994Z,51.28
2023-01-26T19:02:49.740Z,64.95
2023-01-26T19:05:17.441Z,63.17
2023-01-26T19:07:44.282Z,83.18
2023-01-26T19:10:11.175Z,62.42
2023-01-26T19:12:37.846Z,60.10
2023-01-26T19:15:04.997Z,57.90
2023-01-26T19:17:31.797Z,53.72
2023-01-26T19:19:58.524Z,51.00
2023-01-26T19:22:25.182Z,50.40
2023-01-26T19:27:24.316Z,60.90
2023-01-26T19:29:52.166Z,44.92
2023-01-26T19:32:18.940Z,56.40
2023-01-26T19:34:45.624Z,52.63
2023-01-26T19:37:12.268Z,53.90
2023-01-26T19:39:39.043Z,48.63
2023-01-26T19:42:06.191Z,47.92
2023-01-26T19:44:33.146Z,43.33
2023-01-26T19:46:59.786Z,44.75
2023-01-26T19:49:26.784Z,47.28
2023-01-26T19:51:54.239Z,49.28
2023-01-26T19:54:20.900Z,52.55
2023-01-26T19:56:47.945Z,45.58
2023-01-26T19:59:14.600Z,45.00
2023-01-26T20:01:44.937Z,49.08
2023-01-26T20:04:14.230Z,52.13
2023-01-26T20:06:42.228Z,46.47
2023-01-26T20:09:12.522Z,49.45
2023-01-26T20:11:39.369Z,52.97
2023-01-26T20:14:08.984Z,53.20
2023-01-26T20:16:36.486Z,53.28
2023-01-26T20:19:03.861Z,54.20
2023-01-26T20:21:31.897Z,47.72
2023-01-26T20:24:05.700Z,53.65
2023-01-26T20:29:01.521Z,42.95
2023-01-26T20:31:28.309Z,52.03
2023-01-26T20:33:55.281Z,54.40
2023-01-26T20:36:24.972Z,51.25
2023-01-26T20:38:51.989Z,48.75
2023-01-26T20:41:22.292Z,50.05
2023-01-26T20:43:59.085Z,49.13
2023-01-26T20:46:29.609Z,51.35
2023-01-26T20:48:56.986Z,50.10
2023-01-26T20:51:30.610Z,50.38
2023-01-26T20:53:57.964Z,47.65
2023-01-26T20:56:24.886Z,51.00
2023-01-26T20:58:55.869Z,45.17
2023-01-26T21:01:23.637Z,50.60
2023-01-26T21:03:55.263Z,52.15
2023-01-26T21:06:24.354Z,52.22
2023-01-26T21:08:54.313Z,52.47
2023-01-26T21:11:23.279Z,60.33
2023-01-26T21:13:50.493Z,53.30
2023-01-26T21:16:19.136Z,55.67
2023-01-26T21:18:46.680Z,55.83
2023-01-26T21:21:17.855Z,51.53
2023-01-26T21:23:45.517Z,50.40
2023-01-26T21:26:14.988Z,49.00
2023-01-26T21:28:42.002Z,49.20
2023-01-26T21:31:14.212Z,50.22
2023-01-26T21:33:45.921Z,54.60
2023-01-26T21:36:15.560Z,51.08
2023-01-26T21:38:45.555Z,45.45
2023-01-26T21:41:45.049Z,46.53
2023-01-26T21:44:14.592Z,52.25
2023-01-26T21:46:42.513Z,50.35
2023-01-26T21:49:10.105Z,58.58
2023-01-26T21:51:55.725Z,50.75
2023-01-26T21:54:22.687Z,52.28
2023-01-26T21:56:49.576Z,50.33
2023-01-26T21:59:17.343Z,54.17
2023-01-26T22:01:49.509Z,59.38
2023-01-26T22:04:24.760Z,51.47
2023-01-26T22:06:52.450Z,47.83
2023-01-26T22:09:19.588Z,57.75
2023-01-26T22:11:46.769Z,55.13
2023-01-26T22:14:21.303Z,54.63
2023-01-26T22:16:48.250Z,48.92
2023-01-26T22:19:15.485Z,54.05
2023-01-26T22:21:42.835Z,49.70
2023-01-26T22:24:12.066Z,54.78
2023-01-26T22:26:39.430Z,48.28
2023-01-26T22:29:06.839Z,47.60
2023-01-26T22:31:34.931Z,47.03
2023-01-26T22:34:02.475Z,42.08
2023-01-26T22:36:29.540Z,46.90
2023-01-26T22:38:56.554Z,43.55
2023-01-26T22:41:27.805Z,52.05
2023-01-26T22:43:55.525Z,48.83
2023-01-26T22:46:23.877Z,47.28
2023-01-26T22:48:51.571Z,49.38
2023-01-26T22:51:21.551Z,48.30
2023-01-26T22:53:49.951Z,46.75
2023-01-26T22:56:16.900Z,58.88
2023-01-26T22:58:57.058Z,58.60
2023-01-26T23:01:25.156Z,49.97
2023-01-26T23:03:53.176Z,42.17
2023-01-26T23:06:20.667Z,44.88
2023-01-26T23:08:47.584Z,48.22
2023-01-26T23:11:16.936Z,45.65
2023-01-26T23:13:45.112Z,38.58
2023-01-26T23:16:12.137Z,40.85
2023-01-26T23:18:39.250Z,40.28
2023-01-26T23:21:06.887Z,41.38
2023-01-26T23:23:33.874Z,36.08
2023-01-26T23:26:00.741Z,35.53
2023-01-26T23:28:33.478Z,35.65
2023-01-26T23:31:00.848Z,34.50
2023-01-26T23:33:29.790Z,36.15
2023-01-26T23:35:56.980Z,34.22
2023-01-26T23:38:25.074Z,30.40
2023-01-26T23:40:52.401Z,33.17
2023-01-26T23:43:19.773Z,34.75
2023-01-26T23:45:47.919Z,35.28
2023-01-26T23:48:15.227Z,35.75
2023-01-26T23:50:42.757Z,33.65
2023-01-26T23:53:09.603Z,32.03
2023-01-26T23:55:41.088Z,35.20
2023-01-26T23:58:08.236Z,34.10
